Main page
Satellite images 15-day forecastsClimateMarine weather Cyclones Lightning AirportsFAQ Newsletter About
Weather : Europe Africa North America South America Asia Australia-Oceania Others
Languages Contact

Longyearbyen, Norway

Svalbard

latitude: 78-15N, longitude: 015-28E, elevation: 2 m


METAR: ENSB 211550Z 12016KT 9999 FEW020 SCT180 M05/M08 Q1016 RMK WIND 1400FT 10009KT
TAF: ENSB 2115/2215 12008KT 9999 FEW020 SCT050 TEMPO 2115/2215 14015G25KT

Time: 18:42 (16:42 UTC)

Current weather observation

The report was made 52 minutes ago, at 15:50 UTC
Wind 16 kt from the East/Southeast
Temperature -5°C
Humidity 79%
Pressure 1016 hPa
Visibility 10 km or more
Few clouds at a height of 2000 ft
Scattered clouds at a height of 18000 ft

Change units

Forecast

Forecast valid from 21 at 15 UTC to 22 at 15 UTC
Wind 08 kt from the East/Southeast
Visibility 10 km or more
Few clouds at a height of 2000 ft
Scattered clouds at a height of 5000 ft
Temporary
from 21 at 15 UTC to 22 at 15 UTC
Wind 15 kt from the Southeast with gusts up to 25 kt
The information on this site is subject to a disclaimer
Weather : Europe Africa North America South America Asia Australia-Oceania Others
Satellite images 15-day forecastsClimateMarine weather Cyclones Lightning AirportsFAQ Languages Contact Newsletter About